createdAt,value
2022-08-07T00:04:01.026Z,76.83
2022-08-07T00:09:16.930Z,77.16
2022-08-07T00:14:31.658Z,77.01
2022-08-07T00:20:02.539Z,76.81
2022-08-07T00:25:00.573Z,77.04
2022-08-07T00:30:21.721Z,76.97
2022-08-07T00:35:31.757Z,77.05
2022-08-07T00:40:40.834Z,77.71
2022-08-07T00:45:46.598Z,78.10
2022-08-07T00:50:51.750Z,78.57
2022-08-07T00:56:02.185Z,78.87
2022-08-07T01:01:08.478Z,79.00
2022-08-07T01:06:13.849Z,79.22
2022-08-07T01:12:04.580Z,79.45
2022-08-07T01:16:49.569Z,79.50
2022-08-07T01:21:55.944Z,79.48
2022-08-07T01:27:02.293Z,79.32
2022-08-07T01:32:12.537Z,79.23
2022-08-07T01:37:19.070Z,79.14
2022-08-07T01:42:39.848Z,79.07
2022-08-07T01:48:18.893Z,78.96
2022-08-07T01:53:21.697Z,78.90
2022-08-07T01:58:49.110Z,78.96
2022-08-07T02:04:28.463Z,79.07
2022-08-07T02:09:52.745Z,79.25
2022-08-07T02:15:01.101Z,79.40
2022-08-07T02:20:17.197Z,79.39
2022-08-07T02:26:10.429Z,79.32
2022-08-07T02:30:52.820Z,79.23
2022-08-07T02:36:29.456Z,79.26
2022-08-07T02:41:25.654Z,79.18
2022-08-07T02:46:46.702Z,79.25
2022-08-07T02:52:02.009Z,79.29
2022-08-07T02:57:15.266Z,79.15
2022-08-07T03:02:20.825Z,79.04
2022-08-07T03:07:58.981Z,78.98
2022-08-07T03:12:53.488Z,79.07
2022-08-07T03:18:00.328Z,79.17
2022-08-07T03:23:05.858Z,79.22
2022-08-07T03:28:37.996Z,79.25
2022-08-07T03:33:47.374Z,79.26
2022-08-07T03:38:56.428Z,79.21
2022-08-07T03:44:02.453Z,79.22
2022-08-07T03:49:10.144Z,78.94
2022-08-07T03:54:36.461Z,78.88
2022-08-07T03:59:46.579Z,78.79
2022-08-07T04:05:12.869Z,78.97
2022-08-07T04:10:19.463Z,79.06
2022-08-07T04:15:24.095Z,78.99
2022-08-07T04:20:29.071Z,78.76
2022-08-07T04:25:40.986Z,78.54
2022-08-07T04:30:56.791Z,78.35
2022-08-07T04:36:02.180Z,78.25
2022-08-07T04:41:18.226Z,78.04
2022-08-07T04:46:35.868Z,77.93
2022-08-07T04:52:03.780Z,77.81
2022-08-07T04:58:11.707Z,77.61
2022-08-07T05:04:06.724Z,76.99
2022-08-07T05:09:02.344Z,76.65
2022-08-07T05:14:55.529Z,76.32
2022-08-07T05:20:09.455Z,75.92
2022-08-07T05:25:25.637Z,75.50
2022-08-07T05:30:43.927Z,74.89
2022-08-07T05:35:55.134Z,74.36
2022-08-07T05:41:01.917Z,73.99
2022-08-07T05:46:20.345Z,73.60
2022-08-07T05:51:31.421Z,73.11
2022-08-07T05:56:40.791Z,72.55
2022-08-07T06:01:47.137Z,72.04
2022-08-07T06:06:56.701Z,71.85
2022-08-07T06:12:09.198Z,71.19
2022-08-07T06:17:16.879Z,70.80
2022-08-07T06:22:27.130Z,69.95
2022-08-07T06:27:59.657Z,68.64
2022-08-07T06:32:57.195Z,68.26
2022-08-07T06:38:02.098Z,67.39
2022-08-07T06:43:21.669Z,67.11
2022-08-07T06:48:26.722Z,66.21
2022-08-07T06:55:27.153Z,65.16
2022-08-07T07:00:11.415Z,64.57
2022-08-07T07:04:32.923Z,64.04
2022-08-07T07:09:38.894Z,63.60
2022-08-07T07:15:08.578Z,63.50
2022-08-07T07:20:58.219Z,61.86
2022-08-07T07:26:35.417Z,61.01
2022-08-07T07:31:44.490Z,60.58
2022-08-07T07:36:54.233Z,60.41
2022-08-07T07:42:12.969Z,60.24
2022-08-07T07:47:23.900Z,60.19
2022-08-07T07:52:33.402Z,58.58
2022-08-07T07:57:52.281Z,58.15
2022-08-07T08:03:16.423Z,56.42
2022-08-07T08:08:34.372Z,56.06
2022-08-07T08:13:53.340Z,55.31
2022-08-07T08:19:17.260Z,54.35
2022-08-07T08:24:57.165Z,53.06
2022-08-07T08:30:17.374Z,53.85
2022-08-07T08:35:28.804Z,52.83
2022-08-07T08:40:54.595Z,52.42
2022-08-07T08:46:22.083Z,51.22
2022-08-07T08:52:12.580Z,49.78
2022-08-07T08:57:38.941Z,49.12
2022-08-07T09:03:48.031Z,49.15
2022-08-07T09:09:13.388Z,47.71
2022-08-07T09:14:59.994Z,47.15
2022-08-07T09:21:13.824Z,45.15
2022-08-07T09:27:11.988Z,44.79
2022-08-07T09:32:26.695Z,44.65
2022-08-07T09:38:10.400Z,43.93
2022-08-07T09:44:03.565Z,43.47
2022-08-07T09:50:02.459Z,42.30
2022-08-07T09:55:28.923Z,42.76
2022-08-07T10:01:51.246Z,42.71
2022-08-07T10:07:24.168Z,41.62
2022-08-07T10:13:05.870Z,41.34
2022-08-07T10:18:39.995Z,42.66
2022-08-07T10:24:05.311Z,43.44
2022-08-07T10:29:51.731Z,42.81
2022-08-07T10:35:16.617Z,41.36
2022-08-07T10:40:53.213Z,40.58
2022-08-07T10:46:26.616Z,40.23
2022-08-07T10:52:13.497Z,39.01
2022-08-07T10:58:17.629Z,39.20
2022-08-07T11:04:05.425Z,40.38
2022-08-07T11:10:09.345Z,41.14
2022-08-07T11:15:01.229Z,41.82
2022-08-07T11:20:20.181Z,41.56
2022-08-07T11:25:50.015Z,39.84
2022-08-07T11:31:18.490Z,37.09
2022-08-07T11:36:31.240Z,37.67
2022-08-07T11:42:03.351Z,39.24
2022-08-07T11:47:39.099Z,39.52
2022-08-07T11:53:26.073Z,39.37
2022-08-07T11:58:50.795Z,38.81
2022-08-07T12:04:18.038Z,37.81
2022-08-07T12:10:02.156Z,39.40
2022-08-07T12:15:46.714Z,40.79
2022-08-07T12:20:57.012Z,43.77
2022-08-07T12:26:29.054Z,44.36
2022-08-07T12:32:03.753Z,45.57
2022-08-07T12:37:16.909Z,45.47
2022-08-07T12:42:32.069Z,44.94
2022-08-07T12:48:05.048Z,45.22
2022-08-07T12:54:02.794Z,46.88
2022-08-07T12:59:37.084Z,46.83
2022-08-07T13:06:04.610Z,46.62
2022-08-07T13:11:17.902Z,46.85
2022-08-07T13:16:46.871Z,46.69
2022-08-07T13:22:35.327Z,47.21
2022-08-07T13:28:12.864Z,46.49
2022-08-07T13:34:32.661Z,45.79
2022-08-07T13:40:34.846Z,44.67
2022-08-07T13:46:20.838Z,43.19
2022-08-07T13:51:00.119Z,41.07
2022-08-07T13:56:07.465Z,41.94
2022-08-07T14:01:21.927Z,43.43
2022-08-07T14:06:35.148Z,43.44
2022-08-07T14:11:53.281Z,43.87
2022-08-07T14:17:32.052Z,43.83
2022-08-07T14:22:35.858Z,44.42
2022-08-07T14:28:21.087Z,44.08
2022-08-07T14:33:23.407Z,44.96
2022-08-07T14:38:39.306Z,45.28
2022-08-07T14:44:15.671Z,46.12
2022-08-07T14:49:57.187Z,46.28
2022-08-07T14:55:17.437Z,46.37
2022-08-07T15:00:48.809Z,45.49
2022-08-07T15:06:09.050Z,45.31
2022-08-07T15:12:08.231Z,45.85
2022-08-07T15:17:20.338Z,45.89
2022-08-07T15:22:51.602Z,46.76
2022-08-07T15:28:33.093Z,47.24
2022-08-07T15:33:44.566Z,46.08
2022-08-07T15:44:32.574Z,40.17
2022-08-07T15:56:02.125Z,40.13
2022-08-07T16:01:03.063Z,40.77
2022-08-07T16:06:10.023Z,42.78
2022-08-07T16:11:40.142Z,42.90
2022-08-07T16:18:02.313Z,42.29
2022-08-07T16:23:13.546Z,40.62
2022-08-07T16:30:08.755Z,41.24
2022-08-07T16:34:39.282Z,42.58
2022-08-07T16:40:37.232Z,43.53
2022-08-07T16:47:13.042Z,44.69
2022-08-07T16:52:51.513Z,44.42
2022-08-07T16:58:20.886Z,44.47
2022-08-07T17:04:00.370Z,44.40
2022-08-07T17:10:05.231Z,44.67
2022-08-07T17:15:04.599Z,45.15
2022-08-07T17:20:40.541Z,45.58
2022-08-07T17:26:24.249Z,46.72
2022-08-07T17:32:02.331Z,47.67
2022-08-07T17:38:11.364Z,48.35
2022-08-07T17:44:03.256Z,49.17
2022-08-07T17:50:04.052Z,50.28
2022-08-07T17:55:55.757Z,51.33
2022-08-07T18:01:36.765Z,52.33
2022-08-07T18:07:20.747Z,53.02
2022-08-07T18:13:16.403Z,53.53
2022-08-07T18:21:03.958Z,54.24
2022-08-07T18:25:23.885Z,55.28
2022-08-07T18:31:07.535Z,56.26
2022-08-07T18:36:41.093Z,56.65
2022-08-07T18:42:45.909Z,57.35
2022-08-07T18:50:31.880Z,58.13
2022-08-07T18:55:40.922Z,58.80
2022-08-07T19:02:18.107Z,59.31
2022-08-07T19:07:36.086Z,60.08
2022-08-07T19:13:44.379Z,60.55
2022-08-07T19:19:31.831Z,61.24
2022-08-07T19:24:52.197Z,61.92
2022-08-07T19:31:00.765Z,62.28
2022-08-07T19:35:33.428Z,62.51
2022-08-07T19:40:49.375Z,62.83
2022-08-07T19:46:07.575Z,63.24
2022-08-07T19:51:50.729Z,63.53
2022-08-07T19:57:51.608Z,63.71
2022-08-07T20:02:52.300Z,64.10
2022-08-07T20:08:15.455Z,64.49
2022-08-07T20:13:56.734Z,64.67
2022-08-07T20:19:10.521Z,64.96
2022-08-07T20:24:28.909Z,65.33
2022-08-07T20:29:58.400Z,65.58
2022-08-07T20:35:16.075Z,65.66
2022-08-07T20:40:31.421Z,66.01
2022-08-07T20:46:27.696Z,66.10
2022-08-07T20:51:09.374Z,66.13
2022-08-07T20:56:20.207Z,66.34
2022-08-07T21:01:45.829Z,66.38
2022-08-07T21:07:03.995Z,66.15
2022-08-07T21:12:15.081Z,66.12
2022-08-07T21:18:03.984Z,66.25
2022-08-07T21:22:55.052Z,66.35
2022-08-07T21:28:49.324Z,66.38
2022-08-07T21:34:08.851Z,66.46
2022-08-07T21:39:47.300Z,66.61
2022-08-07T21:46:08.776Z,66.99
2022-08-07T21:50:54.487Z,67.08
2022-08-07T21:56:35.862Z,67.04
2022-08-07T22:02:11.050Z,67.36
2022-08-07T22:07:35.736Z,67.43
2022-08-07T22:13:03.829Z,67.55
2022-08-07T22:18:26.314Z,67.68
2022-08-07T22:24:09.855Z,67.96
2022-08-07T22:29:48.136Z,68.59
2022-08-07T22:35:00.738Z,68.71
2022-08-07T22:40:21.511Z,69.11
2022-08-07T22:46:21.185Z,69.32
2022-08-07T22:51:43.659Z,69.56
2022-08-07T22:57:33.548Z,69.92
2022-08-07T23:03:58.919Z,70.05
2022-08-07T23:10:03.462Z,69.99
2022-08-07T23:16:05.401Z,70.13
2022-08-07T23:21:16.262Z,70.61
2022-08-07T23:26:26.671Z,70.89
2022-08-07T23:34:20.332Z,70.89
2022-08-07T23:37:32.041Z,71.04
2022-08-07T23:43:16.974Z,71.32
2022-08-07T23:49:05.460Z,71.96
2022-08-07T23:54:52.118Z,72.36
